Time;durP1;ratioP1;P1;durP2;ratioP2;P2;SDS_P1;SDS_P2;PMS_P1;PMS_P2;Temp;Humidity;BMP_temperature;BMP_pressure;BME280_temperature;BME280_humidity;BME280_pressure;Samples;Min_cycle;Max_cycle;Signal;HPM_P1;HPM_P2
2022/03/23 00:00:04;;;;;;;32.20;13.13;;;;;;;3.40;67.94;97982.94;5137304;27;20563;-37
2022/03/23 00:02:33;;;;;;;19.10;8.50;;;;;;;3.39;67.51;97981.31;5137748;27;20559;-37
2022/03/23 00:05:00;;;;;;;26.73;10.37;;;;;;;3.39;67.68;97984.75;5137705;27;20490;-37
2022/03/23 00:07:28;;;;;;;30.80;11.90;;;;;;;3.39;67.76;97981.31;5137388;27;20472;-37
2022/03/23 00:09:55;;;;;;;27.50;12.90;;;;;;;3.38;67.40;97977.88;5137555;27;20448;-38
2022/03/23 00:12:23;;;;;;;25.93;9.83;;;;;;;3.38;67.55;97977.06;5137261;27;20513;-37
2022/03/23 00:14:50;;;;;;;37.50;13.33;;;;;;;3.37;67.63;97978.84;5137268;27;20487;-37
2022/03/23 00:17:17;;;;;;;33.50;13.63;;;;;;;3.35;67.93;97990.50;5137461;27;20858;-37
2022/03/23 00:19:46;;;;;;;23.30;12.27;;;;;;;3.30;67.90;97977.06;5137075;27;20528;-37
2022/03/23 00:22:14;;;;;;;46.20;13.70;;;;;;;3.33;68.14;97985.41;5136931;27;20441;-37
2022/03/23 00:24:41;;;;;;;51.83;15.40;;;;;;;3.28;68.51;97975.38;5137372;27;20849;-37
2022/03/23 00:27:09;;;;;;;26.40;11.07;;;;;;;3.28;67.96;97971.94;5136933;27;20438;-37
2022/03/23 00:29:36;;;;;;;28.97;10.40;;;;;;;3.27;67.92;97968.50;5137276;27;20466;-37
2022/03/23 00:32:05;;;;;;;33.47;6.90;;;;;;;3.22;68.91;97972.59;5136829;27;20441;-37
2022/03/23 00:34:32;;;;;;;27.60;8.70;;;;;;;3.20;69.29;97978.00;5137131;27;20437;-37
2022/03/23 00:37:01;;;;;;;27.03;8.50;;;;;;;3.17;69.37;97978.31;5137060;27;20905;-36
2022/03/23 00:39:29;;;;;;;27.60;8.40;;;;;;;3.16;69.86;97971.44;5136747;27;20928;-37
2022/03/23 00:41:56;;;;;;;19.50;7.87;;;;;;;3.16;69.56;97970.59;5136691;27;20479;-37
2022/03/23 00:44:24;;;;;;;20.90;7.63;;;;;;;3.07;69.12;97961.88;5136582;27;20436;-37
2022/03/23 00:46:51;;;;;;;12.60;5.17;;;;;;;3.14;69.56;97967.31;5136937;27;20888;-37
2022/03/23 00:49:19;;;;;;;17.70;7.80;;;;;;;3.07;71.67;97985.50;5136790;27;20514;-38
2022/03/23 00:51:46;;;;;;;20.53;9.20;;;;;;;2.91;72.97;97977.59;5136551;27;20531;-37
2022/03/23 00:54:15;;;;;;;20.27;7.10;;;;;;;2.85;73.17;97963.31;5136383;27;20546;-37
2022/03/23 00:56:42;;;;;;;32.40;7.10;;;;;;;2.89;75.15;97969.88;5136453;27;20465;-37
2022/03/23 00:59:09;;;;;;;9.90;5.30;;;;;;;2.89;76.42;97974.31;5136387;27;20441;-37
2022/03/23 01:01:37;;;;;;;12.30;4.70;;;;;;;2.92;76.84;97981.84;5136186;27;20555;-38
2022/03/23 01:04:05;;;;;;;19.60;3.90;;;;;;;2.94;76.85;97978.09;5136561;27;20448;-37
2022/03/23 01:06:33;;;;;;;6.00;3.80;;;;;;;2.75;76.25;97983.59;5136228;27;20445;-37
2022/03/23 01:09:00;;;;;;;17.53;4.80;;;;;;;2.59;76.51;97984.34;5136204;27;20499;-37
2022/03/23 01:11:29;;;;;;;8.00;3.83;;;;;;;2.52;77.13;97988.56;5136479;27;20455;-37
2022/03/23 01:13:56;;;;;;;11.73;5.30;;;;;;;2.55;76.77;97983.00;5136251;27;20832;-37
2022/03/23 01:16:24;;;;;;;6.70;4.23;;;;;;;2.60;76.50;97985.97;5136381;27;20516;-37
2022/03/23 01:18:51;;;;;;;17.63;5.60;;;;;;;2.62;76.64;97982.25;5135934;27;20484;-37
2022/03/23 01:21:18;;;;;;;11.70;5.07;;;;;;;2.65;75.99;97983.72;5136222;27;20787;-38
2022/03/23 01:23:46;;;;;;;18.43;7.53;;;;;;;2.71;75.34;97987.50;5135822;27;20442;-37
2022/03/23 01:26:14;;;;;;;16.10;7.17;;;;;;;2.67;75.45;97992.25;5136040;27;20437;-37
2022/03/23 01:28:42;;;;;;;13.53;6.80;;;;;;;2.65;74.53;97984.53;5136131;27;20452;-40
2022/03/23 01:31:10;;;;;;;11.83;5.30;;;;;;;2.61;74.32;98000.75;5135694;27;20482;-37
2022/03/23 01:33:37;;;;;;;18.83;7.10;;;;;;;2.38;73.68;97979.47;5135234;27;20485;-38
2022/03/23 01:36:05;;;;;;;4.40;3.63;;;;;;;2.48;73.28;97998.53;5135153;27;20487;-37
2022/03/23 01:38:32;;;;;;;7.67;3.83;;;;;;;2.41;72.90;97982.63;5136396;27;20570;-38
2022/03/23 01:41:00;;;;;;;17.40;5.23;;;;;;;2.49;72.90;97992.31;5135501;27;20472;-38
2022/03/23 01:43:28;;;;;;;16.43;6.43;;;;;;;2.50;72.82;98001.03;5135739;27;20516;-37
2022/03/23 01:45:57;;;;;;;9.67;6.40;;;;;;;2.48;73.38;98003.78;5135773;27;20441;-37
2022/03/23 01:48:24;;;;;;;22.43;5.93;;;;;;;2.44;73.49;98003.25;5135290;27;20493;-38
2022/03/23 01:50:51;;;;;;;12.23;6.93;;;;;;;2.41;73.52;98003.59;5135339;27;20978;-38
2022/03/23 01:53:19;;;;;;;12.63;5.60;;;;;;;2.31;75.47;97996.81;5135161;27;20477;-38
2022/03/23 01:55:47;;;;;;;9.20;5.20;;;;;;;2.24;76.50;98001.84;5135559;27;20442;-37
2022/03/23 01:58:14;;;;;;;13.57;4.97;;;;;;;2.18;76.67;97994.59;5135248;27;20940;-38
2022/03/23 02:00:41;;;;;;;6.70;4.83;;;;;;;2.15;77.36;97992.25;5134910;27;20479;-37
2022/03/23 02:03:12;;;;;;;14.63;5.57;;;;;;;2.14;78.29;98001.13;5135475;27;20444;-37
2022/03/23 02:05:40;;;;;;;10.03;4.80;;;;;;;2.09;77.69;97996.34;5135038;27;20436;-37
2022/03/23 02:08:07;;;;;;;17.00;6.30;;;;;;;2.11;77.26;97985.69;5135032;27;21022;-37
2022/03/23 02:10:35;;;;;;;9.43;4.90;;;;;;;2.13;78.52;97989.81;5134927;27;20449;-37
2022/03/23 02:13:02;;;;;;;5.93;3.87;;;;;;;2.07;79.56;97979.94;5135206;27;20488;-37
2022/03/23 02:15:29;;;;;;;14.43;6.57;;;;;;;2.14;78.68;97985.38;5134931;27;20445;-37
2022/03/23 02:17:57;;;;;;;22.37;6.50;;;;;;;2.15;79.24;97987.03;5134827;27;21001;-36
2022/03/23 02:20:26;;;;;;;24.50;7.47;;;;;;;2.10;78.94;97989.28;5134880;27;20576;-38
2022/03/23 02:22:55;;;;;;;13.73;6.10;;;;;;;2.03;79.06;97984.66;5134745;27;20444;-37
2022/03/23 02:25:25;;;;;;;12.10;5.60;;;;;;;2.05;78.69;97982.72;5135571;27;20445;-38
2022/03/23 02:27:54;;;;;;;16.03;5.97;;;;;;;2.13;78.52;97999.44;5134693;27;20485;-38
2022/03/23 02:30:22;;;;;;;14.80;5.47;;;;;;;2.08;78.92;97981.56;5134643;27;20448;-37
2022/03/23 02:32:50;;;;;;;15.63;6.03;;;;;;;2.11;79.10;97980.44;5134566;27;20528;-38
2022/03/23 02:35:17;;;;;;;6.67;5.13;;;;;;;2.10;79.42;97986.66;5134562;27;20443;-38
2022/03/23 02:37:45;;;;;;;30.13;7.70;;;;;;;2.12;78.40;97997.81;5134560;27;20952;-37
2022/03/23 02:40:14;;;;;;;21.97;6.90;;;;;;;2.10;78.30;97994.53;5134496;27;20533;-38
2022/03/23 02:42:43;;;;;;;9.13;5.27;;;;;;;2.08;79.25;97993.88;5134446;27;20449;-37
2022/03/23 02:45:11;;;;;;;9.20;3.90;;;;;;;2.10;79.56;97999.78;5134612;27;20449;-38
2022/03/23 02:47:41;;;;;;;24.47;6.73;;;;;;;2.03;80.40;97989.91;5134469;27;20835;-37
2022/03/23 02:50:09;;;;;;;11.60;6.47;;;;;;;2.05;79.28;97992.38;5134776;27;20449;-37
2022/03/23 03:01:51;;;;;;;13.70;7.57;;;;;;;2.07;79.60;98000.91;5134707;27;20458;-38
2022/03/23 03:04:11;;;;;;;7.37;6.47;;;;;;;2.09;78.00;98004.19;5130314;27;20432;-37
2022/03/23 03:06:38;;;;;;;19.33;7.00;;;;;;;2.11;77.88;98001.41;5134475;27;20868;-37
2022/03/23 03:09:06;;;;;;;22.43;10.27;;;;;;;2.09;77.85;97998.13;5135108;27;20469;-37
2022/03/23 03:11:34;;;;;;;45.20;16.20;;;;;;;2.04;78.35;98002.03;5134494;27;20912;-37
2022/03/23 03:14:02;;;;;;;27.33;9.67;;;;;;;2.02;78.61;98005.75;5134120;27;20488;-37
2022/03/23 03:16:29;;;;;;;25.13;10.70;;;;;;;1.99;78.54;98004.28;5134140;27;20497;-38
2022/03/23 03:18:57;;;;;;;20.53;10.97;;;;;;;2.01;78.26;98012.81;5134083;27;20447;-37
2022/03/23 03:21:24;;;;;;;13.50;8.30;;;;;;;2.04;77.40;98012.53;5134496;27;20497;-38
2022/03/23 03:23:51;;;;;;;24.07;10.60;;;;;;;2.05;77.05;98001.06;5134099;27;20445;-37
2022/03/23 03:26:19;;;;;;;24.23;10.70;;;;;;;2.08;77.55;97996.47;5134122;27;20448;-38
2022/03/23 03:28:49;;;;;;;32.77;13.03;;;;;;;2.02;77.13;98006.59;5134314;27;20473;-37
2022/03/23 03:31:16;;;;;;;16.87;10.53;;;;;;;1.97;77.34;98003.59;5134097;27;20937;-37
2022/03/23 03:33:44;;;;;;;26.23;11.20;;;;;;;1.95;76.74;98002.94;5133853;27;20486;-37
2022/03/23 03:36:12;;;;;;;26.40;12.20;;;;;;;1.96;77.19;97998.53;5134832;27;20789;-38
2022/03/23 03:38:40;;;;;;;25.37;11.87;;;;;;;1.94;76.62;98003.09;5134034;27;20502;-37
2022/03/23 03:41:07;;;;;;;20.30;11.40;;;;;;;1.83;76.86;97988.44;5133862;27;20932;-37
2022/03/23 03:43:35;;;;;;;27.37;14.87;;;;;;;1.88;76.81;98007.13;5134266;27;20442;-37
2022/03/23 03:46:06;;;;;;;24.97;10.97;;;;;;;1.88;76.83;97985.38;5133901;27;20875;-37
2022/03/23 03:48:34;;;;;;;41.77;18.00;;;;;;;1.89;77.18;97993.06;5134169;27;20437;-37
2022/03/23 03:51:01;;;;;;;33.67;15.17;;;;;;;1.71;77.32;97979.19;5133780;27;20445;-38
2022/03/23 03:53:29;;;;;;;29.37;14.03;;;;;;;1.83;77.47;98001.53;5133703;27;20932;-38
2022/03/23 03:55:56;;;;;;;36.87;13.93;;;;;;;1.80;76.75;97993.97;5133785;27;20868;-38
2022/03/23 03:58:23;;;;;;;37.10;13.20;;;;;;;1.73;78.63;97999.00;5135763;27;20437;-37
2022/03/23 04:00:51;;;;;;;31.33;13.73;;;;;;;1.78;77.88;98004.59;5137305;27;20473;-37
2022/03/23 04:03:19;;;;;;;20.77;12.73;;;;;;;1.78;77.21;98001.16;5137754;27;20512;-37
2022/03/23 04:05:47;;;;;;;28.37;12.57;;;;;;;1.65;76.64;97980.59;5137750;27;20491;-37
2022/03/23 04:08:14;;;;;;;36.40;12.87;;;;;;;1.78;76.18;98007.22;5137683;27;20800;-37
2022/03/23 04:10:41;;;;;;;31.07;13.57;;;;;;;1.79;76.29;98002.81;5137261;27;20441;-37
2022/03/23 04:13:09;;;;;;;35.33;16.47;;;;;;;1.80;75.32;97999.22;5137232;27;20445;-37
2022/03/23 04:15:36;;;;;;;52.10;21.80;;;;;;;1.78;75.35;98009.00;5137098;27;20488;-37
2022/03/23 04:18:05;;;;;;;39.53;19.90;;;;;;;1.74;75.94;98010.28;5137534;27;20445;-37
2022/03/23 04:20:34;;;;;;;45.10;22.10;;;;;;;1.72;75.57;98002.59;5137095;27;20441;-38
2022/03/23 04:23:01;;;;;;;30.00;18.27;;;;;;;1.57;76.09;97986.59;5137298;27;20539;-38
2022/03/23 04:25:28;;;;;;;44.87;19.93;;;;;;;1.73;75.34;98003.41;5137347;27;20445;-37
2022/03/23 04:27:57;;;;;;;43.57;20.60;;;;;;;1.57;75.78;97989.22;5137256;27;20437;-37
2022/03/23 04:30:28;;;;;;;35.30;16.57;;;;;;;1.72;76.03;98009.59;5136982;27;20449;-36
2022/03/23 04:32:56;;;;;;;25.07;16.30;;;;;;;1.77;75.73;98004.75;5137220;27;20532;-37
2022/03/23 04:35:23;;;;;;;40.67;19.47;;;;;;;1.84;75.61;98013.66;5136721;27;20495;-38
2022/03/23 04:37:53;;;;;;;54.60;20.03;;;;;;;1.95;75.89;97996.88;5136820;27;20520;-37
2022/03/23 04:40:22;;;;;;;41.77;18.50;;;;;;;2.14;75.11;97998.50;5136687;27;20448;-37
2022/03/23 04:42:49;;;;;;;39.30;16.60;;;;;;;2.38;74.06;97998.63;5136933;27;20445;-37
2022/03/23 04:45:17;;;;;;;65.50;20.70;;;;;;;2.56;73.30;97975.00;5136657;27;20544;-37
2022/03/23 04:47:45;;;;;;;30.03;12.67;;;;;;;3.02;72.71;98003.53;5136606;27;20528;-37
2022/03/23 04:50:13;;;;;;;22.30;11.20;;;;;;;3.41;71.54;98000.38;5136562;27;20437;-38
2022/03/23 04:52:43;;;;;;;19.70;10.53;;;;;;;3.81;70.70;98007.47;5136500;27;20477;-38
2022/03/23 04:55:13;;;;;;;16.43;7.90;;;;;;;4.27;69.17;98006.97;5136357;27;20489;-40
2022/03/23 04:57:40;;;;;;;18.83;6.50;;;;;;;4.59;67.90;97986.84;5136444;27;20536;-37
2022/03/23 05:00:10;;;;;;;26.20;12.07;;;;;;;5.17;66.53;98009.31;5136362;27;20468;-39
2022/03/23 05:02:39;;;;;;;20.63;12.20;;;;;;;5.57;65.01;98015.38;5136507;27;20421;-38
2022/03/23 05:05:11;;;;;;;52.63;22.90;;;;;;;5.92;64.11;98010.50;5136215;27;20441;-37
2022/03/23 05:07:39;;;;;;;71.37;33.17;;;;;;;6.26;61.98;98011.88;5136062;27;20437;-37
2022/03/23 05:10:09;;;;;;;61.20;31.47;;;;;;;6.59;60.54;98009.75;5136427;27;20823;-38
2022/03/23 05:12:39;;;;;;;41.50;22.60;;;;;;;6.90;58.77;98017.47;5135991;27;20526;-38
2022/03/23 05:15:08;;;;;;;41.17;20.50;;;;;;;7.19;58.61;98018.47;5136262;27;20851;-38
2022/03/23 05:17:36;;;;;;;21.13;12.87;;;;;;;7.33;57.24;97993.81;5135957;27;21006;-38
2022/03/23 05:20:04;;;;;;;27.90;12.10;;;;;;;7.75;56.51;98020.50;5135872;27;20485;-38
2022/03/23 05:22:31;;;;;;;20.47;13.40;;;;;;;7.99;55.84;98027.25;5135860;27;20437;-37
2022/03/23 05:24:59;;;;;;;25.97;10.63;;;;;;;8.25;55.62;98026.66;5136073;27;20449;-38
2022/03/23 05:27:26;;;;;;;23.93;12.53;;;;;;;8.51;55.07;98017.31;5135758;27;20438;-38
2022/03/23 05:29:55;;;;;;;31.57;14.07;;;;;;;8.81;53.93;98020.56;5136029;27;20438;-37
2022/03/23 05:32:22;;;;;;;30.27;14.20;;;;;;;8.91;53.83;98020.22;5135975;27;20460;-37
2022/03/23 05:34:50;;;;;;;40.37;20.70;;;;;;;9.13;53.12;98018.28;5135536;27;20489;-38
2022/03/23 05:37:18;;;;;;;44.30;25.50;;;;;;;9.43;52.62;98022.28;5135832;27;20473;-38
2022/03/23 05:39:45;;;;;;;35.40;13.43;;;;;;;9.66;51.99;98029.09;5135515;27;20932;-38
2022/03/23 05:42:13;;;;;;;21.10;10.27;;;;;;;9.85;51.53;98032.78;5135742;27;20439;-38
2022/03/23 05:44:40;;;;;;;28.03;13.17;;;;;;;9.96;50.60;98026.06;5135410;27;20505;-38
2022/03/23 05:47:09;;;;;;;23.97;12.70;;;;;;;10.10;50.37;98029.56;5135378;27;20442;-39
2022/03/23 05:49:37;;;;;;;24.73;10.00;;;;;;;10.21;49.73;98027.09;5135656;27;20841;-38
2022/03/23 05:52:04;;;;;;;21.33;12.00;;;;;;;10.38;49.61;98032.06;5135651;27;20931;-39
2022/03/23 05:54:32;;;;;;;23.80;10.20;;;;;;;10.62;48.40;98023.44;5135060;27;20485;-39
2022/03/23 05:57:02;;;;;;;19.90;9.37;;;;;;;10.77;48.45;98031.19;5135175;27;20444;-39
2022/03/23 05:59:30;;;;;;;16.27;8.20;;;;;;;10.91;48.26;98032.00;5135074;27;20433;-39
2022/03/23 06:01:58;;;;;;;13.43;7.00;;;;;;;11.03;48.60;98029.50;5135597;27;20555;-38
2022/03/23 06:04:27;;;;;;;38.07;17.47;;;;;;;11.23;48.51;98037.44;5135037;27;21039;-39
2022/03/23 06:06:54;;;;;;;26.53;16.20;;;;;;;11.41;48.20;98037.53;5135616;27;20498;-36
2022/03/23 06:09:22;;;;;;;52.13;21.27;;;;;;;11.48;48.01;98033.00;5134937;27;20862;-38
2022/03/23 06:11:49;;;;;;;20.37;12.20;;;;;;;11.50;48.08;98034.66;5134912;27;20818;-38
2022/03/23 06:14:16;;;;;;;23.30;12.83;;;;;;;11.57;47.96;98027.44;5134894;27;20485;-38
2022/03/23 06:16:43;;;;;;;23.33;10.13;;;;;;;11.71;47.84;98031.69;5135107;27;20529;-38
2022/03/23 06:19:11;;;;;;;14.90;8.47;;;;;;;11.75;47.15;98032.88;5135088;27;20920;-38
2022/03/23 06:21:40;;;;;;;41.27;16.27;;;;;;;11.68;46.80;98032.13;5134579;27;20448;-38
2022/03/23 06:24:08;;;;;;;28.77;14.00;;;;;;;11.84;47.38;98038.75;5134925;27;20449;-38
2022/03/23 06:26:35;;;;;;;30.70;12.60;;;;;;;12.05;46.70;98032.31;5135007;27;20445;-38
2022/03/23 06:29:03;;;;;;;20.13;9.43;;;;;;;12.20;46.29;98030.16;5134627;27;20470;-38
2022/03/23 06:31:30;;;;;;;20.60;7.50;;;;;;;12.18;46.10;98032.22;5134651;27;20524;-38
2022/03/23 06:33:59;;;;;;;17.90;9.17;;;;;;;11.96;45.16;98023.78;5134844;27;20433;-39
2022/03/23 06:36:26;;;;;;;41.03;12.80;;;;;;;12.03;46.08;98035.19;5134587;27;20441;-38
2022/03/23 06:38:55;;;;;;;18.13;8.87;;;;;;;12.00;45.64;98040.13;5134500;27;20437;-39
2022/03/23 06:41:22;;;;;;;21.10;12.57;;;;;;;11.96;46.02;98033.59;5134520;27;20860;-36
2022/03/23 06:43:50;;;;;;;17.73;9.67;;;;;;;11.94;45.34;98033.00;5134470;27;20441;-39
2022/03/23 06:46:17;;;;;;;18.70;10.30;;;;;;;11.99;45.45;98033.19;5134512;27;20436;-38
2022/03/23 06:48:45;;;;;;;23.00;12.07;;;;;;;11.93;45.80;98039.34;5134752;27;20928;-39
2022/03/23 06:51:13;;;;;;;33.57;16.33;;;;;;;11.84;46.38;98031.59;5134457;27;20445;-38
2022/03/23 06:53:40;;;;;;;23.60;11.37;;;;;;;11.66;46.75;98032.31;5134370;27;20476;-38
2022/03/23 06:56:09;;;;;;;18.83;10.50;;;;;;;11.81;46.50;98044.53;5134348;27;20485;-38
2022/03/23 06:58:37;;;;;;;22.63;8.43;;;;;;;11.16;45.92;97996.75;5134312;27;20445;-38
2022/03/23 07:01:05;;;;;;;20.80;10.70;;;;;;;11.76;46.12;98026.53;5134300;27;20465;-38
2022/03/23 07:03:32;;;;;;;11.70;6.30;;;;;;;12.15;44.64;98043.28;5134251;27;20441;-40
2022/03/23 07:05:59;;;;;;;16.63;7.40;;;;;;;12.39;44.46;98040.84;5134260;27;20437;-38
2022/03/23 07:11:13;;;;;;;14.17;8.10;;;;;;;12.75;43.46;98034.81;5134894;28;20405;-38
2022/03/23 07:13:40;;;;;;;23.73;10.23;;;;;;;12.87;43.49;98038.38;5135352;27;20437;-38
2022/03/23 07:16:07;;;;;;;14.60;6.30;;;;;;;12.83;42.23;98039.06;5134149;27;20991;-38
2022/03/23 07:18:35;;;;;;;8.63;4.77;;;;;;;12.55;42.86;98035.00;5134160;27;20441;-38
2022/03/23 07:21:04;;;;;;;12.23;4.60;;;;;;;12.47;42.77;98051.25;5134403;27;20437;-38
2022/03/23 07:23:31;;;;;;;8.20;5.60;;;;;;;12.31;42.61;98041.16;5134108;27;20502;-38
2022/03/23 07:25:59;;;;;;;13.20;5.27;;;;;;;12.36;43.00;98046.63;5134055;27;20943;-38
2022/03/23 07:28:28;;;;;;;24.83;8.47;;;;;;;12.65;43.01;98037.97;5134133;27;20483;-38
2022/03/23 07:30:56;;;;;;;17.70;7.87;;;;;;;12.68;42.17;98036.72;5134029;27;20448;-38
2022/03/23 07:33:23;;;;;;;9.53;4.87;;;;;;;12.93;40.84;98034.03;5136535;27;20472;-38
2022/03/23 07:35:50;;;;;;;8.40;3.97;;;;;;;12.80;40.65;98034.97;5137955;27;20488;-38
2022/03/23 07:38:18;;;;;;;13.23;4.90;;;;;;;12.70;41.30;98040.78;5138082;27;20433;-38
2022/03/23 07:40:45;;;;;;;9.53;6.27;;;;;;;12.84;41.30;98024.66;5138761;27;20489;-38
2022/03/23 07:43:12;;;;;;;9.30;4.83;;;;;;;13.05;41.59;98036.75;5138116;27;20771;-38
2022/03/23 07:45:41;;;;;;;9.47;5.83;;;;;;;13.20;40.57;98031.06;5137834;27;20451;-38
2022/03/23 07:48:08;;;;;;;7.27;5.40;;;;;;;13.20;40.74;98028.41;5137695;27;20441;-38
2022/03/23 07:50:36;;;;;;;17.20;5.87;;;;;;;13.50;41.04;98037.28;5137755;27;20446;-38
2022/03/23 07:53:03;;;;;;;10.40;5.60;;;;;;;13.76;40.45;98035.31;5137664;27;20802;-38
2022/03/23 07:55:31;;;;;;;9.93;3.67;;;;;;;13.45;37.69;98031.81;5137542;27;20512;-39
2022/03/23 07:57:58;;;;;;;11.47;5.70;;;;;;;12.90;38.79;98024.59;5137695;27;20958;-38
2022/03/23 08:00:25;;;;;;;4.13;3.80;;;;;;;12.81;41.50;98022.47;5137776;27;20468;-38
2022/03/23 08:02:54;;;;;;;22.60;4.90;;;;;;;12.61;36.29;98020.81;5137784;27;20868;-38
2022/03/23 08:05:22;;;;;;;3.87;3.43;;;;;;;12.13;37.62;98017.91;5137432;27;20942;-38
2022/03/23 08:07:49;;;;;;;6.30;4.10;;;;;;;11.71;39.27;98021.03;5137615;27;20445;-38
2022/03/23 08:10:16;;;;;;;11.73;4.50;;;;;;;11.59;39.94;98012.91;5137361;27;20472;-38
2022/03/23 08:12:43;;;;;;;13.10;5.23;;;;;;;11.47;40.40;98015.44;5137237;27;20445;-38
2022/03/23 08:15:11;;;;;;;11.87;8.67;;;;;;;11.57;40.27;98014.97;5137522;27;20853;-38
2022/03/23 08:17:38;;;;;;;12.10;3.53;;;;;;;11.91;40.12;98004.16;5137167;27;20447;-38
2022/03/23 08:22:55;;;;;;;8.03;4.37;;;;;;;11.80;38.53;98008.28;5137483;27;20400;-38
2022/03/23 08:25:22;;;;;;;15.70;5.10;;;;;;;11.46;39.07;98003.16;5137952;27;20492;-38
2022/03/23 08:27:49;;;;;;;5.83;3.73;;;;;;;11.64;38.52;97999.00;5136935;27;20441;-38
2022/03/23 08:30:17;;;;;;;9.53;4.10;;;;;;;11.48;39.29;98001.09;5136963;27;20950;-38
2022/03/23 08:32:44;;;;;;;12.80;5.07;;;;;;;11.22;38.84;97998.56;5137214;27;20441;-38
2022/03/23 08:35:13;;;;;;;13.10;8.60;;;;;;;11.63;40.29;97998.16;5136739;27;20492;-38
2022/03/23 08:37:40;;;;;;;11.70;4.93;;;;;;;12.08;38.70;97994.63;5137173;27;20445;-38
2022/03/23 08:40:08;;;;;;;11.37;4.80;;;;;;;12.31;37.64;97986.03;5136795;27;20445;-38
2022/03/23 08:42:36;;;;;;;11.03;4.97;;;;;;;12.03;38.28;97975.81;5136733;27;21019;-38
2022/03/23 08:45:04;;;;;;;8.07;4.70;;;;;;;12.24;38.33;97975.44;5137462;27;20448;-38
2022/03/23 08:47:32;;;;;;;7.47;6.00;;;;;;;12.41;37.97;97990.84;5136978;27;20924;-38
2022/03/23 08:49:59;;;;;;;9.30;5.07;;;;;;;12.42;35.92;97989.84;5136598;27;20449;-38
2022/03/23 08:52:29;;;;;;;9.67;3.70;;;;;;;12.47;35.79;97985.47;5136573;27;20441;-38
2022/03/23 08:54:57;;;;;;;13.53;6.03;;;;;;;12.64;36.09;97985.72;5136993;27;20801;-38
2022/03/23 08:57:24;;;;;;;15.60;4.60;;;;;;;12.76;38.58;97977.03;5136406;27;20456;-38
2022/03/23 08:59:52;;;;;;;5.00;3.00;;;;;;;13.07;35.32;97976.84;5136182;27;20446;-39
2022/03/23 09:02:19;;;;;;;7.90;3.77;;;;;;;13.04;35.84;97974.63;5136401;27;20426;-38
2022/03/23 09:04:46;;;;;;;3.43;2.67;;;;;;;13.09;35.56;97960.63;5136616;27;20467;-39
2022/03/23 09:07:13;;;;;;;6.70;3.03;;;;;;;13.49;35.12;97968.97;5136282;27;20445;-38
2022/03/23 09:09:42;;;;;;;7.63;4.30;;;;;;;13.27;34.56;97955.28;5136487;27;20437;-38
2022/03/23 09:12:10;;;;;;;7.93;4.10;;;;;;;12.56;35.51;97974.53;5135961;27;20441;-38
2022/03/23 09:14:37;;;;;;;5.77;3.20;;;;;;;12.12;36.21;97958.56;5136307;27;20834;-38
2022/03/23 09:17:05;;;;;;;12.33;4.10;;;;;;;11.84;36.75;97957.09;5135967;27;21037;-38
2022/03/23 09:19:32;;;;;;;9.13;4.30;;;;;;;11.75;37.79;97958.38;5136245;27;20452;-38
2022/03/23 09:22:00;;;;;;;5.83;4.67;;;;;;;11.75;37.67;97963.72;5135849;27;20429;-38
2022/03/23 09:24:27;;;;;;;7.40;4.27;;;;;;;11.75;36.97;97965.56;5135860;27;20441;-38
2022/03/23 09:26:56;;;;;;;3.90;3.20;;;;;;;11.51;36.24;97964.47;5135696;27;20433;-38
2022/03/23 09:29:24;;;;;;;4.97;3.57;;;;;;;11.58;36.98;97952.75;5135772;27;20446;-38
2022/03/23 09:31:51;;;;;;;5.40;4.57;;;;;;;11.83;36.61;97959.97;5136011;27;20794;-38
2022/03/23 09:34:18;;;;;;;7.77;3.60;;;;;;;11.69;36.72;97946.75;5135733;27;20924;-38
2022/03/23 09:39:30;;;;;;;11.30;6.40;;;;;;;11.97;35.44;97958.88;5135718;27;20416;-38
2022/03/23 09:41:59;;;;;;;10.00;7.03;;;;;;;11.84;35.21;97935.81;5135482;27;20445;-38
2022/03/23 09:44:28;;;;;;;9.47;5.23;;;;;;;12.01;36.44;97935.31;5135485;27;20441;-38
2022/03/23 09:46:57;;;;;;;15.60;6.73;;;;;;;12.20;35.65;97931.66;5135396;27;20739;-38
2022/03/23 09:49:25;;;;;;;7.73;4.60;;;;;;;11.82;32.44;97937.88;5135335;27;20920;-38
2022/03/23 09:51:53;;;;;;;5.47;3.07;;;;;;;11.58;33.22;97925.38;5135608;27;20447;-38
2022/03/23 09:54:22;;;;;;;3.80;3.27;;;;;;;11.52;34.54;97936.84;5135244;27;20445;-38
2022/03/23 09:56:49;;;;;;;7.93;5.00;;;;;;;11.34;33.41;97946.38;5134716;27;20489;-38
2022/03/23 09:59:18;;;;;;;5.60;2.97;;;;;;;11.61;33.52;97932.91;5135491;27;20455;-38
2022/03/23 10:02:36;;;;;;;9.67;5.57;;;;;;;11.87;34.04;97930.06;5134943;27;20479;-38
2022/03/23 10:05:45;;;;;;;7.57;4.10;;;;;;;11.58;33.69;97933.34;5135055;27;20451;-38
2022/03/23 10:08:54;;;;;;;5.10;3.30;;;;;;;11.61;33.45;97927.56;5135077;27;20485;-38
2022/03/23 10:12:12;;;;;;;6.63;3.33;;;;;;;11.65;34.23;97926.94;5135311;27;20425;-40
2022/03/23 10:15:16;;;;;;;9.90;4.23;;;;;;;12.00;34.23;97918.53;5135180;27;20742;-39
2022/03/23 10:18:27;;;;;;;5.30;3.27;;;;;;;12.14;32.48;97927.19;5135106;27;20761;-38
2022/03/23 10:20:54;;;;;;;4.67;2.97;;;;;;;12.00;32.28;97929.19;5071474;28;20534;-38
2022/03/23 10:23:22;;;;;;;8.13;3.43;;;;;;;11.67;33.72;97916.88;5071569;28;20452;-39
2022/03/23 10:25:50;;;;;;;2.63;2.43;;;;;;;11.55;34.18;97907.16;5071434;28;20440;-38
2022/03/23 10:28:19;;;;;;;8.10;4.07;;;;;;;11.63;34.21;97914.88;5071481;28;20513;-38
2022/03/23 10:30:47;;;;;;;7.77;4.07;;;;;;;11.53;34.29;97911.88;5071320;28;20436;-37
2022/03/23 10:33:20;;;;;;;10.03;2.90;;;;;;;11.45;34.26;97907.66;5071414;28;20491;-37
2022/03/23 10:35:47;;;;;;;13.93;3.57;;;;;;;11.48;35.42;97905.34;5071201;28;20479;-38
2022/03/23 10:38:16;;;;;;;5.27;4.37;;;;;;;11.41;34.50;97875.34;5071308;28;20493;-38
2022/03/23 10:40:44;;;;;;;11.20;3.37;;;;;;;11.31;34.45;97884.81;5071276;28;20458;-38
2022/03/23 10:43:12;;;;;;;7.27;3.63;;;;;;;11.25;35.14;97899.81;5071258;28;20443;-37
2022/03/23 10:45:40;;;;;;;10.23;4.00;;;;;;;11.39;34.74;97895.19;5071216;28;20543;-39
2022/03/23 10:48:10;;;;;;;6.27;4.13;;;;;;;11.65;35.23;97894.19;5071184;28;20471;-38
2022/03/23 10:50:39;;;;;;;8.80;4.37;;;;;;;11.57;34.18;97886.47;5071477;28;20440;-38
2022/03/23 10:53:08;;;;;;;9.40;4.50;;;;;;;11.40;33.96;97868.41;5072103;28;20432;-38
2022/03/23 10:55:39;;;;;;;4.97;4.07;;;;;;;11.54;34.51;97881.59;5081751;28;20997;-38
2022/03/23 10:58:21;;;;;;;6.43;3.33;;;;;;;11.54;34.93;97879.75;5134662;27;20434;-38
2022/03/23 11:00:49;;;;;;;6.80;3.40;;;;;;;11.48;35.25;97867.31;5134456;27;20484;-38
2022/03/23 11:03:17;;;;;;;4.63;3.60;;;;;;;11.79;36.10;97874.44;5134349;27;20947;-38
2022/03/23 11:05:47;;;;;;;5.63;3.27;;;;;;;12.12;35.39;97861.91;5134676;27;20779;-38
2022/03/23 11:08:16;;;;;;;3.43;3.13;;;;;;;12.61;34.10;97863.63;5138536;27;20436;-38
2022/03/23 11:16:22;;;;;;;5.70;3.63;;;;;;;12.07;33.91;97859.91;5138784;27;20598;-38
2022/03/23 11:18:49;;;;;;;6.83;4.10;;;;;;;12.07;32.35;97870.56;5138702;27;20465;-38
2022/03/23 11:21:18;;;;;;;9.90;4.27;;;;;;;11.94;31.69;97849.38;5138713;27;20795;-37
2022/03/23 11:23:45;;;;;;;11.30;3.20;;;;;;;11.97;32.25;97849.75;5138276;27;20441;-38
2022/03/23 11:26:13;;;;;;;8.77;3.57;;;;;;;12.13;32.49;97851.06;5138241;27;20436;-38
2022/03/23 11:28:42;;;;;;;6.20;3.53;;;;;;;12.02;32.33;97835.78;5138214;27;20448;-38
2022/03/23 11:31:11;;;;;;;7.20;3.97;;;;;;;12.25;31.82;97838.63;5138158;27;20445;-38
2022/03/23 11:33:38;;;;;;;4.70;3.33;;;;;;;12.37;32.26;97835.22;5138112;27;20794;-38
2022/03/23 11:36:09;;;;;;;10.27;3.80;;;;;;;12.29;32.80;97837.13;5138293;27;20480;-38
2022/03/23 11:38:39;;;;;;;5.70;3.20;;;;;;;12.27;33.61;97836.53;5138081;27;20436;-38
2022/03/23 11:41:08;;;;;;;6.07;2.70;;;;;;;12.41;32.70;97839.88;5138260;27;20944;-38
2022/03/23 11:43:36;;;;;;;4.17;3.77;;;;;;;12.35;32.01;97829.31;5138281;27;20441;-38
2022/03/23 11:46:04;;;;;;;7.00;3.83;;;;;;;12.19;32.54;97820.06;5137794;27;20493;-38
2022/03/23 11:48:48;;;;;;;8.80;3.73;;;;;;;12.05;32.36;97814.06;5138148;27;20596;-38
2022/03/23 11:51:32;;;;;;;4.47;3.07;;;;;;;11.85;32.67;97822.19;5138076;27;20461;-38
2022/03/23 11:54:08;;;;;;;12.23;4.47;;;;;;;11.87;32.52;97823.63;5138112;27;20424;-38
2022/03/23 11:56:49;;;;;;;7.67;4.30;;;;;;;11.87;32.97;97812.97;5137669;27;21005;-38
2022/03/23 11:59:22;;;;;;;6.13;4.07;;;;;;;11.84;33.06;97813.41;5137868;27;20474;-37